Winter Haven, FL

10:53 AM EST on February 09, 2016 (GMT -0500)
Winter Haven's-Gilbert | | Change Station
CLOSE
Current Station
Airport
Location: Winter Haven,
Elevation: 144 ft
Nearby Weather Stations
Active Advisory: Lake Wind Advisory Active Notice: Public Information Statement

Elev 144 ft 28.06 °N, 81.75 °W | Updated 1 hour ago

Scattered Clouds
Scattered Clouds
54 °F
Feels Like 54 °F
N
13
Wind Variable Wind from WNW

Today
High -- | Low -- °F
--% Chance of Precip.
Yesterday
High -- | Low -- °F
Precip. -- in
Pressure 30.08 in
Visibility 10.0 miles
Clouds Scattered Clouds 6500 ft
Dew Point 31 °F
Humidity 41%
Rainfall 0.00 in
Snow Depth Not available.
7:09 AM 6:13 PM
New Moon, 1% visible
METAR KGIF 091453Z AUTO 30011KT 10SM SCT065 12/M01 A3008 RMK AO2 SLP184 T01221006 51010
Pressure 30.08 in
Visibility 10.0 miles
Clouds Scattered Clouds 6500 ft
Dew Point 31 °F
Humidity 41%
Rainfall 0.00 in
Snow Depth Not available.
7:09 AM 6:13 PM
New Moon, 1% visible
METAR KGIF 091453Z AUTO 30011KT 10SM SCT065 12/M01 A3008 RMK AO2 SLP184 T01221006 51010

10-Day Weather Forecast

Almanac

Astronomy

Feb. 09, 2016 Rise Set
Actual Time
Civil Twilight
Nautical Twilight
Astronomical Twilight
Moon
Length of Visible Light
Length of Day
Tomorrow will be .
, % of the Moon is Illuminated

Today's Extremes

State Highs State Lows

Community

WunderPhotos

Upload Photos

1,891,628 photos uploaded!

WunderBlog® & News

Nearby

Air Quality

  Air Quality AQ Index Pollutant
Not available.

Snow Depth

Station Depth Elevation

Earthquake Activity

City Distance Mag. Time & Date
Minimum magnitude displayed is 2.5.

Coastal Water Temperatures

Place Temperature

Stations

Nearby Weather Stations

Station Location Temp. Windchill Dew Point Humidity Wind Precip. Elev Updated Type
                   

Watches & Warnings

Lake Wind Advisory
Issued: 4:12 AM EST Feb. 9, 2016 – National Weather Service

... Lake Wind Advisory in effect from 11 am this morning to 6 PM
EST this evening...

The National Weather Service in Tampa Bay area - Ruskin FL has
issued a lake Wind Advisory... which is in effect from 11 am this
morning to 6 PM EST this evening.

* Timing... 11 am to 6 PM EST

* winds... sustained winds of 20 to 25 mph with some higher gusts
over area lakes.

* Impacts... hazardous boating conditions on area lakes.

Precautionary/preparedness actions...

A lake Wind Advisory is issued when sustained winds are forecast
to be 20 to 29 mph with frequent gusts to near or above gale
force for at least 3 hours. Winds of these magnitudes will
create rough conditions on larger area lakes which could produce
damage to... or flip... small pleasure craft.

Outdoor enthusiasts may wish to postpone lake related activities
until conditions improve.